sensor_id;sensor_type;location;lat;lon;timestamp;P1;durP1;ratioP1;P2;durP2;ratioP2
15067;SDS011;7633;60.024;18.770;2022-08-19T00:00:01;14.85;;;13.27;;
15067;SDS011;7633;60.024;18.770;2022-08-19T00:02:26;14.75;;;13.30;;
15067;SDS011;7633;60.024;18.770;2022-08-19T00:04:51;15.80;;;14.27;;
15067;SDS011;7633;60.024;18.770;2022-08-19T00:07:20;13.98;;;12.52;;
15067;SDS011;7633;60.024;18.770;2022-08-19T00:09:46;15.15;;;13.63;;
15067;SDS011;7633;60.024;18.770;2022-08-19T00:12:11;14.82;;;13.43;;
15067;SDS011;7633;60.024;18.770;2022-08-19T00:14:37;12.70;;;11.50;;
15067;SDS011;7633;60.024;18.770;2022-08-19T00:17:03;14.30;;;12.90;;
15067;SDS011;7633;60.024;18.770;2022-08-19T00:19:29;15.90;;;14.25;;
15067;SDS011;7633;60.024;18.770;2022-08-19T00:21:55;15.07;;;13.57;;
15067;SDS011;7633;60.024;18.770;2022-08-19T00:24:21;14.98;;;13.52;;
15067;SDS011;7633;60.024;18.770;2022-08-19T00:26:47;15.32;;;13.82;;
15067;SDS011;7633;60.024;18.770;2022-08-19T00:29:14;15.20;;;13.60;;
15067;SDS011;7633;60.024;18.770;2022-08-19T00:31:39;17.13;;;15.43;;
15067;SDS011;7633;60.024;18.770;2022-08-19T00:34:06;15.77;;;14.35;;
15067;SDS011;7633;60.024;18.770;2022-08-19T00:36:32;15.27;;;13.73;;
15067;SDS011;7633;60.024;18.770;2022-08-19T00:38:58;16.00;;;14.40;;
15067;SDS011;7633;60.024;18.770;2022-08-19T00:41:24;16.98;;;15.38;;
15067;SDS011;7633;60.024;18.770;2022-08-19T00:44:25;16.38;;;14.73;;
15067;SDS011;7633;60.024;18.770;2022-08-19T00:46:44;14.43;;;13.07;;
15067;SDS011;7633;60.024;18.770;2022-08-19T00:49:11;15.68;;;14.05;;
15067;SDS011;7633;60.024;18.770;2022-08-19T00:51:40;14.70;;;13.38;;
15067;SDS011;7633;60.024;18.770;2022-08-19T00:54:06;14.88;;;13.38;;
15067;SDS011;7633;60.024;18.770;2022-08-19T00:56:31;15.38;;;13.88;;
15067;SDS011;7633;60.024;18.770;2022-08-19T00:58:57;15.73;;;14.23;;
15067;SDS011;7633;60.024;18.770;2022-08-19T01:01:23;16.08;;;14.48;;
15067;SDS011;7633;60.024;18.770;2022-08-19T01:03:49;16.77;;;15.18;;
15067;SDS011;7633;60.024;18.770;2022-08-19T01:06:14;16.13;;;14.57;;
15067;SDS011;7633;60.024;18.770;2022-08-19T01:08:40;14.65;;;13.18;;
15067;SDS011;7633;60.024;18.770;2022-08-19T01:11:05;16.10;;;14.50;;
15067;SDS011;7633;60.024;18.770;2022-08-19T01:13:32;15.07;;;13.50;;
15067;SDS011;7633;60.024;18.770;2022-08-19T01:16:00;13.98;;;12.52;;
15067;SDS011;7633;60.024;18.770;2022-08-19T01:18:26;15.48;;;13.98;;
15067;SDS011;7633;60.024;18.770;2022-08-19T01:20:52;17.20;;;15.40;;
15067;SDS011;7633;60.024;18.770;2022-08-19T01:23:19;15.10;;;13.70;;
15067;SDS011;7633;60.024;18.770;2022-08-19T01:25:47;15.48;;;13.88;;
15067;SDS011;7633;60.024;18.770;2022-08-19T01:28:25;18.42;;;16.52;;
15067;SDS011;7633;60.024;18.770;2022-08-19T01:30:50;18.35;;;16.58;;
15067;SDS011;7633;60.024;18.770;2022-08-19T01:33:16;18.50;;;16.65;;
15067;SDS011;7633;60.024;18.770;2022-08-19T01:35:42;15.48;;;13.90;;
15067;SDS011;7633;60.024;18.770;2022-08-19T01:38:10;17.17;;;15.48;;
15067;SDS011;7633;60.024;18.770;2022-08-19T01:40:37;18.50;;;16.70;;
15067;SDS011;7633;60.024;18.770;2022-08-19T01:43:03;19.02;;;17.13;;
15067;SDS011;7633;60.024;18.770;2022-08-19T01:45:30;17.70;;;15.90;;
15067;SDS011;7633;60.024;18.770;2022-08-19T01:47:56;16.42;;;14.93;;
15067;SDS011;7633;60.024;18.770;2022-08-19T01:50:22;19.52;;;17.55;;
15067;SDS011;7633;60.024;18.770;2022-08-19T01:52:47;17.58;;;15.98;;
15067;SDS011;7633;60.024;18.770;2022-08-19T01:55:14;20.35;;;14.70;;
15067;SDS011;7633;60.024;18.770;2022-08-19T01:57:40;16.70;;;14.95;;
15067;SDS011;7633;60.024;18.770;2022-08-19T02:00:08;14.60;;;12.43;;
15067;SDS011;7633;60.024;18.770;2022-08-19T02:02:34;15.13;;;13.68;;
15067;SDS011;7633;60.024;18.770;2022-08-19T02:05:00;15.77;;;14.18;;
15067;SDS011;7633;60.024;18.770;2022-08-19T02:07:25;52.35;;;14.68;;
15067;SDS011;7633;60.024;18.770;2022-08-19T02:09:53;15.35;;;13.80;;
15067;SDS011;7633;60.024;18.770;2022-08-19T02:12:20;14.90;;;13.50;;
15067;SDS011;7633;60.024;18.770;2022-08-19T02:14:46;83.68;;;20.95;;
15067;SDS011;7633;60.024;18.770;2022-08-19T02:17:11;95.78;;;18.30;;
15067;SDS011;7633;60.024;18.770;2022-08-19T02:19:37;34.55;;;13.50;;
15067;SDS011;7633;60.024;18.770;2022-08-19T02:22:02;22.35;;;13.32;;
15067;SDS011;7633;60.024;18.770;2022-08-19T02:24:28;63.40;;;14.82;;
15067;SDS011;7633;60.024;18.770;2022-08-19T02:26:53;20.63;;;12.05;;
15067;SDS011;7633;60.024;18.770;2022-08-19T02:29:19;11.85;;;10.75;;
15067;SDS011;7633;60.024;18.770;2022-08-19T02:31:44;27.77;;;12.50;;
15067;SDS011;7633;60.024;18.770;2022-08-19T02:34:10;175.30;;;20.00;;
15067;SDS011;7633;60.024;18.770;2022-08-19T02:36:35;26.75;;;11.63;;
15067;SDS011;7633;60.024;18.770;2022-08-19T02:39:00;13.90;;;12.50;;
15067;SDS011;7633;60.024;18.770;2022-08-19T02:41:28;94.45;;;15.00;;
15067;SDS011;7633;60.024;18.770;2022-08-19T02:43:57;43.80;;;13.27;;
15067;SDS011;7633;60.024;18.770;2022-08-19T02:46:30;74.22;;;16.55;;
15067;SDS011;7633;60.024;18.770;2022-08-19T02:48:57;36.33;;;10.50;;
15067;SDS011;7633;60.024;18.770;2022-08-19T02:51:27;26.65;;;16.77;;
15067;SDS011;7633;60.024;18.770;2022-08-19T02:53:53;16.33;;;14.73;;
15067;SDS011;7633;60.024;18.770;2022-08-19T02:56:19;51.47;;;20.85;;
15067;SDS011;7633;60.024;18.770;2022-08-19T02:58:45;15.73;;;14.20;;
15067;SDS011;7633;60.024;18.770;2022-08-19T03:01:11;20.30;;;18.17;;
15067;SDS011;7633;60.024;18.770;2022-08-19T03:03:44;21.05;;;18.77;;
15067;SDS011;7633;60.024;18.770;2022-08-19T03:06:10;19.40;;;17.40;;
15067;SDS011;7633;60.024;18.770;2022-08-19T03:08:38;17.80;;;14.30;;
15067;SDS011;7633;60.024;18.770;2022-08-19T03:11:04;16.77;;;15.23;;
15067;SDS011;7633;60.024;18.770;2022-08-19T03:13:29;14.07;;;11.18;;
15067;SDS011;7633;60.024;18.770;2022-08-19T03:15:54;35.33;;;11.23;;
15067;SDS011;7633;60.024;18.770;2022-08-19T03:18:20;48.97;;;13.60;;
15067;SDS011;7633;60.024;18.770;2022-08-19T03:20:46;21.75;;;12.55;;
15067;SDS011;7633;60.024;18.770;2022-08-19T03:23:12;18.40;;;10.90;;
15067;SDS011;7633;60.024;18.770;2022-08-19T03:25:39;17.98;;;10.43;;
15067;SDS011;7633;60.024;18.770;2022-08-19T03:28:07;15.05;;;11.18;;
15067;SDS011;7633;60.024;18.770;2022-08-19T03:30:32;10.50;;;9.50;;
15067;SDS011;7633;60.024;18.770;2022-08-19T03:32:58;11.32;;;10.32;;
15067;SDS011;7633;60.024;18.770;2022-08-19T03:35:23;19.35;;;9.95;;
15067;SDS011;7633;60.024;18.770;2022-08-19T03:37:49;22.02;;;10.02;;
15067;SDS011;7633;60.024;18.770;2022-08-19T03:40:14;10.43;;;9.43;;
15067;SDS011;7633;60.024;18.770;2022-08-19T03:42:39;10.38;;;9.38;;
15067;SDS011;7633;60.024;18.770;2022-08-19T03:45:07;13.23;;;11.93;;
15067;SDS011;7633;60.024;18.770;2022-08-19T03:47:33;48.03;;;16.77;;
15067;SDS011;7633;60.024;18.770;2022-08-19T03:49:58;147.38;;;24.75;;
15067;SDS011;7633;60.024;18.770;2022-08-19T03:52:24;11.15;;;10.05;;
15067;SDS011;7633;60.024;18.770;2022-08-19T03:54:49;23.67;;;9.80;;
15067;SDS011;7633;60.024;18.770;2022-08-19T03:57:14;27.52;;;10.38;;
15067;SDS011;7633;60.024;18.770;2022-08-19T03:59:40;10.98;;;9.65;;
15067;SDS011;7633;60.024;18.770;2022-08-19T04:02:07;16.75;;;9.63;;
15067;SDS011;7633;60.024;18.770;2022-08-19T04:04:34;10.85;;;9.95;;
15067;SDS011;7633;60.024;18.770;2022-08-19T04:06:59;12.35;;;10.55;;
15067;SDS011;7633;60.024;18.770;2022-08-19T04:09:25;21.13;;;11.30;;
15067;SDS011;7633;60.024;18.770;2022-08-19T04:11:54;12.45;;;11.27;;
15067;SDS011;7633;60.024;18.770;2022-08-19T04:14:21;12.85;;;10.43;;
15067;SDS011;7633;60.024;18.770;2022-08-19T04:16:47;11.23;;;10.25;;
15067;SDS011;7633;60.024;18.770;2022-08-19T04:19:12;38.47;;;13.00;;
15067;SDS011;7633;60.024;18.770;2022-08-19T04:21:38;19.73;;;10.75;;
15067;SDS011;7633;60.024;18.770;2022-08-19T04:24:04;20.35;;;10.10;;
15067;SDS011;7633;60.024;18.770;2022-08-19T04:26:31;10.52;;;9.63;;
15067;SDS011;7633;60.024;18.770;2022-08-19T04:29:00;12.05;;;10.95;;
15067;SDS011;7633;60.024;18.770;2022-08-19T04:31:27;10.68;;;9.57;;
15067;SDS011;7633;60.024;18.770;2022-08-19T04:33:53;10.15;;;9.27;;
15067;SDS011;7633;60.024;18.770;2022-08-19T04:36:20;9.45;;;8.65;;
15067;SDS011;7633;60.024;18.770;2022-08-19T04:38:47;10.73;;;9.73;;
15067;SDS011;7633;60.024;18.770;2022-08-19T04:41:12;9.55;;;8.75;;
15067;SDS011;7633;60.024;18.770;2022-08-19T04:43:56;10.48;;;9.57;;
15067;SDS011;7633;60.024;18.770;2022-08-19T04:46:21;11.48;;;10.50;;
15067;SDS011;7633;60.024;18.770;2022-08-19T04:48:47;10.93;;;10.02;;
15067;SDS011;7633;60.024;18.770;2022-08-19T04:51:12;10.40;;;9.50;;
15067;SDS011;7633;60.024;18.770;2022-08-19T04:53:39;10.68;;;9.77;;
15067;SDS011;7633;60.024;18.770;2022-08-19T04:56:09;10.15;;;9.25;;
15067;SDS011;7633;60.024;18.770;2022-08-19T04:58:36;10.85;;;9.82;;
15067;SDS011;7633;60.024;18.770;2022-08-19T05:01:01;10.07;;;9.07;;
15067;SDS011;7633;60.024;18.770;2022-08-19T05:03:27;10.05;;;9.15;;
15067;SDS011;7633;60.024;18.770;2022-08-19T05:05:52;9.48;;;8.68;;
15067;SDS011;7633;60.024;18.770;2022-08-19T05:08:19;9.60;;;8.60;;
15067;SDS011;7633;60.024;18.770;2022-08-19T05:10:49;9.25;;;8.07;;
15067;SDS011;7633;60.024;18.770;2022-08-19T05:13:16;8.75;;;7.85;;
15067;SDS011;7633;60.024;18.770;2022-08-19T05:15:42;8.98;;;8.23;;
15067;SDS011;7633;60.024;18.770;2022-08-19T05:18:07;7.72;;;7.03;;
15067;SDS011;7633;60.024;18.770;2022-08-19T05:20:51;9.43;;;8.20;;
15067;SDS011;7633;60.024;18.770;2022-08-19T05:23:35;9.88;;;8.98;;
15067;SDS011;7633;60.024;18.770;2022-08-19T05:26:00;8.05;;;7.43;;
15067;SDS011;7633;60.024;18.770;2022-08-19T05:28:26;7.95;;;7.15;;
15067;SDS011;7633;60.024;18.770;2022-08-19T05:30:52;8.02;;;7.30;;
15067;SDS011;7633;60.024;18.770;2022-08-19T05:33:20;8.15;;;7.38;;
15067;SDS011;7633;60.024;18.770;2022-08-19T05:35:46;7.60;;;6.75;;
15067;SDS011;7633;60.024;18.770;2022-08-19T05:38:13;7.97;;;7.28;;
15067;SDS011;7633;60.024;18.770;2022-08-19T05:40:38;7.32;;;6.72;;
15067;SDS011;7633;60.024;18.770;2022-08-19T05:43:05;8.05;;;7.40;;
15067;SDS011;7633;60.024;18.770;2022-08-19T05:45:30;7.95;;;7.28;;
15067;SDS011;7633;60.024;18.770;2022-08-19T05:47:59;8.25;;;7.43;;
15067;SDS011;7633;60.024;18.770;2022-08-19T05:50:24;8.05;;;7.35;;
15067;SDS011;7633;60.024;18.770;2022-08-19T05:52:53;7.80;;;7.03;;
15067;SDS011;7633;60.024;18.770;2022-08-19T05:55:18;7.40;;;6.80;;
15067;SDS011;7633;60.024;18.770;2022-08-19T05:57:45;7.50;;;6.90;;
15067;SDS011;7633;60.024;18.770;2022-08-19T06:00:11;7.63;;;6.93;;
15067;SDS011;7633;60.024;18.770;2022-08-19T06:02:37;7.57;;;6.80;;
15067;SDS011;7633;60.024;18.770;2022-08-19T06:05:03;7.95;;;7.18;;
15067;SDS011;7633;60.024;18.770;2022-08-19T06:07:28;7.57;;;6.80;;
15067;SDS011;7633;60.024;18.770;2022-08-19T06:09:54;7.85;;;7.05;;
15067;SDS011;7633;60.024;18.770;2022-08-19T06:12:20;8.27;;;7.57;;
15067;SDS011;7633;60.024;18.770;2022-08-19T06:14:56;7.50;;;6.80;;
15067;SDS011;7633;60.024;18.770;2022-08-19T06:17:21;8.00;;;7.28;;
15067;SDS011;7633;60.024;18.770;2022-08-19T06:19:52;7.78;;;6.97;;
15067;SDS011;7633;60.024;18.770;2022-08-19T06:22:17;7.20;;;6.45;;
15067;SDS011;7633;60.024;18.770;2022-08-19T06:24:43;7.38;;;6.78;;
15067;SDS011;7633;60.024;18.770;2022-08-19T06:27:08;6.97;;;6.28;;
15067;SDS011;7633;60.024;18.770;2022-08-19T06:29:33;7.47;;;6.78;;
15067;SDS011;7633;60.024;18.770;2022-08-19T06:32:00;7.43;;;6.78;;
15067;SDS011;7633;60.024;18.770;2022-08-19T06:34:27;7.45;;;6.75;;
15067;SDS011;7633;60.024;18.770;2022-08-19T06:36:53;7.13;;;6.32;;
15067;SDS011;7633;60.024;18.770;2022-08-19T06:39:20;9.85;;;6.85;;
15067;SDS011;7633;60.024;18.770;2022-08-19T06:41:47;7.30;;;6.60;;
15067;SDS011;7633;60.024;18.770;2022-08-19T06:44:12;7.10;;;6.50;;
15067;SDS011;7633;60.024;18.770;2022-08-19T06:46:38;6.32;;;5.63;;
15067;SDS011;7633;60.024;18.770;2022-08-19T06:49:04;7.55;;;6.60;;
15067;SDS011;7633;60.024;18.770;2022-08-19T06:51:30;7.47;;;5.78;;
15067;SDS011;7633;60.024;18.770;2022-08-19T06:53:59;7.60;;;6.50;;
15067;SDS011;7633;60.024;18.770;2022-08-19T06:56:26;7.22;;;5.95;;
15067;SDS011;7633;60.024;18.770;2022-08-19T06:58:56;6.28;;;5.75;;
15067;SDS011;7633;60.024;18.770;2022-08-19T07:01:21;6.80;;;6.15;;
15067;SDS011;7633;60.024;18.770;2022-08-19T07:03:47;8.15;;;6.35;;
15067;SDS011;7633;60.024;18.770;2022-08-19T07:06:14;8.20;;;6.75;;
15067;SDS011;7633;60.024;18.770;2022-08-19T07:08:42;8.70;;;6.10;;
15067;SDS011;7633;60.024;18.770;2022-08-19T07:11:08;6.45;;;5.75;;
15067;SDS011;7633;60.024;18.770;2022-08-19T07:13:34;7.18;;;6.07;;
15067;SDS011;7633;60.024;18.770;2022-08-19T07:16:06;7.13;;;5.47;;
15067;SDS011;7633;60.024;18.770;2022-08-19T07:18:32;6.43;;;5.68;;
15067;SDS011;7633;60.024;18.770;2022-08-19T07:21:08;6.47;;;5.88;;
15067;SDS011;7633;60.024;18.770;2022-08-19T07:23:34;7.60;;;6.60;;
15067;SDS011;7633;60.024;18.770;2022-08-19T07:26:09;6.05;;;5.50;;
15067;SDS011;7633;60.024;18.770;2022-08-19T07:28:35;6.25;;;5.65;;
15067;SDS011;7633;60.024;18.770;2022-08-19T07:31:07;6.25;;;5.70;;
15067;SDS011;7633;60.024;18.770;2022-08-19T07:33:33;6.45;;;5.85;;
15067;SDS011;7633;60.024;18.770;2022-08-19T07:35:59;8.48;;;6.43;;
15067;SDS011;7633;60.024;18.770;2022-08-19T07:38:24;6.78;;;6.15;;
15067;SDS011;7633;60.024;18.770;2022-08-19T07:40:50;7.47;;;5.97;;
15067;SDS011;7633;60.024;18.770;2022-08-19T07:43:16;5.63;;;4.95;;
15067;SDS011;7633;60.024;18.770;2022-08-19T07:45:47;6.43;;;5.13;;
15067;SDS011;7633;60.024;18.770;2022-08-19T07:48:13;6.80;;;5.68;;
15067;SDS011;7633;60.024;18.770;2022-08-19T07:50:39;7.20;;;5.40;;
15067;SDS011;7633;60.024;18.770;2022-08-19T07:53:04;5.95;;;5.25;;
15067;SDS011;7633;60.024;18.770;2022-08-19T07:55:31;7.00;;;5.70;;
15067;SDS011;7633;60.024;18.770;2022-08-19T07:57:57;7.32;;;5.95;;
15067;SDS011;7633;60.024;18.770;2022-08-19T08:00:22;7.18;;;5.55;;
15067;SDS011;7633;60.024;18.770;2022-08-19T08:02:47;6.93;;;4.80;;
15067;SDS011;7633;60.024;18.770;2022-08-19T08:05:13;5.97;;;5.20;;
15067;SDS011;7633;60.024;18.770;2022-08-19T08:07:57;6.57;;;5.32;;
15067;SDS011;7633;60.024;18.770;2022-08-19T08:10:41;6.53;;;5.82;;
15067;SDS011;7633;60.024;18.770;2022-08-19T08:13:06;6.32;;;5.80;;
15067;SDS011;7633;60.024;18.770;2022-08-19T08:15:32;6.45;;;5.75;;
15067;SDS011;7633;60.024;18.770;2022-08-19T08:17:57;6.35;;;5.75;;
15067;SDS011;7633;60.024;18.770;2022-08-19T08:20:23;7.68;;;6.05;;
15067;SDS011;7633;60.024;18.770;2022-08-19T08:22:49;6.88;;;6.10;;
15067;SDS011;7633;60.024;18.770;2022-08-19T08:25:34;6.07;;;5.50;;
15067;SDS011;7633;60.024;18.770;2022-08-19T08:28:02;6.40;;;5.80;;
15067;SDS011;7633;60.024;18.770;2022-08-19T08:30:30;6.55;;;5.65;;
15067;SDS011;7633;60.024;18.770;2022-08-19T08:33:00;7.18;;;6.47;;
15067;SDS011;7633;60.024;18.770;2022-08-19T08:35:25;9.13;;;7.10;;
15067;SDS011;7633;60.024;18.770;2022-08-19T08:37:51;7.00;;;6.22;;
15067;SDS011;7633;60.024;18.770;2022-08-19T08:40:20;6.60;;;5.90;;
15067;SDS011;7633;60.024;18.770;2022-08-19T08:42:57;9.43;;;6.53;;
15067;SDS011;7633;60.024;18.770;2022-08-19T08:45:27;6.95;;;5.97;;
15067;SDS011;7633;60.024;18.770;2022-08-19T08:47:54;7.28;;;6.18;;
15067;SDS011;7633;60.024;18.770;2022-08-19T08:50:25;7.45;;;5.63;;
15067;SDS011;7633;60.024;18.770;2022-08-19T08:52:53;7.80;;;5.90;;
15067;SDS011;7633;60.024;18.770;2022-08-19T08:55:22;5.97;;;5.47;;
15067;SDS011;7633;60.024;18.770;2022-08-19T09:02:49;6.57;;;5.28;;
15067;SDS011;7633;60.024;18.770;2022-08-19T09:05:14;7.93;;;5.45;;
15067;SDS011;7633;60.024;18.770;2022-08-19T09:10:29;5.60;;;5.10;;
15067;SDS011;7633;60.024;18.770;2022-08-19T09:15:24;6.43;;;5.40;;
15067;SDS011;7633;60.024;18.770;2022-08-19T09:17:52;6.72;;;4.80;;
15067;SDS011;7633;60.024;18.770;2022-08-19T09:20:19;6.03;;;4.93;;
15067;SDS011;7633;60.024;18.770;2022-08-19T09:22:45;5.97;;;4.88;;
15067;SDS011;7633;60.024;18.770;2022-08-19T09:25:12;6.22;;;5.07;;
15067;SDS011;7633;60.024;18.770;2022-08-19T09:27:39;6.05;;;5.45;;
15067;SDS011;7633;60.024;18.770;2022-08-19T09:30:05;5.50;;;4.97;;
15067;SDS011;7633;60.024;18.770;2022-08-19T09:32:31;5.47;;;4.65;;
15067;SDS011;7633;60.024;18.770;2022-08-19T09:34:56;6.57;;;5.22;;
15067;SDS011;7633;60.024;18.770;2022-08-19T09:37:24;5.93;;;4.90;;
15067;SDS011;7633;60.024;18.770;2022-08-19T09:39:50;7.03;;;4.95;;
15067;SDS011;7633;60.024;18.770;2022-08-19T09:42:15;5.85;;;4.70;;
15067;SDS011;7633;60.024;18.770;2022-08-19T09:44:41;6.00;;;5.03;;
15067;SDS011;7633;60.024;18.770;2022-08-19T09:47:08;6.72;;;4.75;;
15067;SDS011;7633;60.024;18.770;2022-08-19T09:49:33;5.32;;;4.82;;
15067;SDS011;7633;60.024;18.770;2022-08-19T09:51:59;6.60;;;5.32;;
15067;SDS011;7633;60.024;18.770;2022-08-19T09:54:24;6.75;;;4.43;;
15067;SDS011;7633;60.024;18.770;2022-08-19T09:56:50;6.82;;;4.80;;
15067;SDS011;7633;60.024;18.770;2022-08-19T09:59:16;5.85;;;4.40;;
15067;SDS011;7633;60.024;18.770;2022-08-19T10:01:41;5.03;;;4.53;;
15067;SDS011;7633;60.024;18.770;2022-08-19T10:04:07;6.35;;;4.72;;
15067;SDS011;7633;60.024;18.770;2022-08-19T10:06:37;6.10;;;5.50;;
15067;SDS011;7633;60.024;18.770;2022-08-19T10:09:03;6.25;;;5.65;;
15067;SDS011;7633;60.024;18.770;2022-08-19T10:11:31;5.20;;;4.78;;
15067;SDS011;7633;60.024;18.770;2022-08-19T10:13:57;5.35;;;4.60;;
15067;SDS011;7633;60.024;18.770;2022-08-19T10:16:22;4.90;;;4.07;;
15067;SDS011;7633;60.024;18.770;2022-08-19T10:18:48;6.55;;;4.70;;
15067;SDS011;7633;60.024;18.770;2022-08-19T10:21:21;6.43;;;5.00;;
15067;SDS011;7633;60.024;18.770;2022-08-19T10:23:48;6.43;;;4.57;;
15067;SDS011;7633;60.024;18.770;2022-08-19T10:26:15;5.47;;;4.47;;
15067;SDS011;7633;60.024;18.770;2022-08-19T10:28:41;5.85;;;4.75;;
15067;SDS011;7633;60.024;18.770;2022-08-19T10:31:11;4.95;;;4.47;;
15067;SDS011;7633;60.024;18.770;2022-08-19T10:33:38;7.03;;;4.55;;
15067;SDS011;7633;60.024;18.770;2022-08-19T10:36:04;5.53;;;4.65;;
15067;SDS011;7633;60.024;18.770;2022-08-19T10:38:31;5.47;;;4.70;;
15067;SDS011;7633;60.024;18.770;2022-08-19T10:40:56;6.05;;;4.50;;
15067;SDS011;7633;60.024;18.770;2022-08-19T10:43:23;5.93;;;4.80;;
15067;SDS011;7633;60.024;18.770;2022-08-19T10:45:53;4.90;;;4.60;;
15067;SDS011;7633;60.024;18.770;2022-08-19T10:48:21;5.18;;;4.47;;
15067;SDS011;7633;60.024;18.770;2022-08-19T10:50:47;5.93;;;4.63;;
15067;SDS011;7633;60.024;18.770;2022-08-19T10:53:31;5.00;;;4.50;;
15067;SDS011;7633;60.024;18.770;2022-08-19T10:55:56;4.55;;;4.05;;
15067;SDS011;7633;60.024;18.770;2022-08-19T10:58:41;5.90;;;4.35;;
15067;SDS011;7633;60.024;18.770;2022-08-19T11:01:07;5.13;;;4.20;;
15067;SDS011;7633;60.024;18.770;2022-08-19T11:03:33;6.28;;;5.07;;
15067;SDS011;7633;60.024;18.770;2022-08-19T11:06:02;6.70;;;4.97;;
15067;SDS011;7633;60.024;18.770;2022-08-19T11:08:28;4.28;;;3.88;;
15067;SDS011;7633;60.024;18.770;2022-08-19T11:10:55;5.22;;;4.40;;
15067;SDS011;7633;60.024;18.770;2022-08-19T11:13:26;5.95;;;4.28;;
15067;SDS011;7633;60.024;18.770;2022-08-19T11:16:05;7.13;;;4.53;;
15067;SDS011;7633;60.024;18.770;2022-08-19T11:18:32;8.32;;;4.90;;
15067;SDS011;7633;60.024;18.770;2022-08-19T11:23:38;5.30;;;4.57;;
15067;SDS011;7633;60.024;18.770;2022-08-19T11:26:03;5.00;;;4.50;;
15067;SDS011;7633;60.024;18.770;2022-08-19T11:28:29;6.35;;;4.90;;
15067;SDS011;7633;60.024;18.770;2022-08-19T11:30:54;5.32;;;4.85;;
15067;SDS011;7633;60.024;18.770;2022-08-19T11:33:20;5.78;;;4.90;;
15067;SDS011;7633;60.024;18.770;2022-08-19T11:35:48;5.72;;;4.82;;
15067;SDS011;7633;60.024;18.770;2022-08-19T11:38:14;5.47;;;4.85;;
15067;SDS011;7633;60.024;18.770;2022-08-19T11:40:39;4.95;;;4.55;;
15067;SDS011;7633;60.024;18.770;2022-08-19T11:43:07;4.75;;;4.20;;
15067;SDS011;7633;60.024;18.770;2022-08-19T11:45:34;5.32;;;4.32;;
15067;SDS011;7633;60.024;18.770;2022-08-19T11:48:00;5.45;;;4.38;;
15067;SDS011;7633;60.024;18.770;2022-08-19T11:50:26;5.07;;;4.68;;
15067;SDS011;7633;60.024;18.770;2022-08-19T11:52:55;5.95;;;4.60;;
15067;SDS011;7633;60.024;18.770;2022-08-19T11:55:21;6.63;;;4.90;;
15067;SDS011;7633;60.024;18.770;2022-08-19T11:57:47;7.38;;;4.63;;
15067;SDS011;7633;60.024;18.770;2022-08-19T12:00:12;6.05;;;5.05;;
15067;SDS011;7633;60.024;18.770;2022-08-19T12:02:38;7.63;;;4.97;;
15067;SDS011;7633;60.024;18.770;2022-08-19T12:05:04;7.20;;;5.43;;
15067;SDS011;7633;60.024;18.770;2022-08-19T12:07:33;5.75;;;5.10;;
15067;SDS011;7633;60.024;18.770;2022-08-19T12:10:00;6.72;;;4.90;;
15067;SDS011;7633;60.024;18.770;2022-08-19T12:12:26;5.93;;;5.28;;
15067;SDS011;7633;60.024;18.770;2022-08-19T12:14:52;8.32;;;4.82;;
15067;SDS011;7633;60.024;18.770;2022-08-19T12:17:22;5.50;;;5.00;;
15067;SDS011;7633;60.024;18.770;2022-08-19T12:19:48;5.65;;;5.15;;
15067;SDS011;7633;60.024;18.770;2022-08-19T12:22:13;5.68;;;5.18;;
15067;SDS011;7633;60.024;18.770;2022-08-19T12:24:38;6.07;;;5.28;;
15067;SDS011;7633;60.024;18.770;2022-08-19T12:27:04;5.70;;;4.78;;
15067;SDS011;7633;60.024;18.770;2022-08-19T12:29:29;5.68;;;5.20;;
15067;SDS011;7633;60.024;18.770;2022-08-19T12:31:55;5.10;;;4.68;;
15067;SDS011;7633;60.024;18.770;2022-08-19T12:34:30;6.20;;;5.05;;
15067;SDS011;7633;60.024;18.770;2022-08-19T12:37:01;6.05;;;5.50;;
15067;SDS011;7633;60.024;18.770;2022-08-19T12:39:27;6.10;;;4.88;;
15067;SDS011;7633;60.024;18.770;2022-08-19T12:41:52;6.32;;;5.45;;
15067;SDS011;7633;60.024;18.770;2022-08-19T12:44:18;5.93;;;5.30;;
15067;SDS011;7633;60.024;18.770;2022-08-19T12:46:44;5.35;;;4.85;;
15067;SDS011;7633;60.024;18.770;2022-08-19T12:49:10;7.25;;;5.65;;
15067;SDS011;7633;60.024;18.770;2022-08-19T12:51:35;5.70;;;5.20;;
15067;SDS011;7633;60.024;18.770;2022-08-19T12:54:01;6.82;;;5.50;;
15067;SDS011;7633;60.024;18.770;2022-08-19T12:56:26;7.00;;;5.68;;
15067;SDS011;7633;60.024;18.770;2022-08-19T12:58:53;7.60;;;5.13;;
15067;SDS011;7633;60.024;18.770;2022-08-19T13:01:19;9.18;;;5.32;;
15067;SDS011;7633;60.024;18.770;2022-08-19T13:03:45;6.93;;;6.05;;
15067;SDS011;7633;60.024;18.770;2022-08-19T13:06:11;6.40;;;5.40;;
15067;SDS011;7633;60.024;18.770;2022-08-19T13:08:36;5.72;;;5.05;;
15067;SDS011;7633;60.024;18.770;2022-08-19T13:11:11;6.15;;;5.28;;
15067;SDS011;7633;60.024;18.770;2022-08-19T13:13:39;5.85;;;5.28;;
15067;SDS011;7633;60.024;18.770;2022-08-19T13:16:06;6.25;;;5.30;;
15067;SDS011;7633;60.024;18.770;2022-08-19T13:18:32;7.45;;;5.72;;
15067;SDS011;7633;60.024;18.770;2022-08-19T13:21:01;6.63;;;5.78;;
15067;SDS011;7633;60.024;18.770;2022-08-19T13:23:28;8.35;;;5.47;;
15067;SDS011;7633;60.024;18.770;2022-08-19T13:25:57;5.82;;;5.25;;
15067;SDS011;7633;60.024;18.770;2022-08-19T13:28:23;9.88;;;5.95;;
15067;SDS011;7633;60.024;18.770;2022-08-19T13:30:48;6.22;;;5.40;;
15067;SDS011;7633;60.024;18.770;2022-08-19T13:33:32;9.30;;;5.72;;
15067;SDS011;7633;60.024;18.770;2022-08-19T13:36:01;6.70;;;5.47;;
15067;SDS011;7633;60.024;18.770;2022-08-19T13:38:27;8.98;;;5.70;;
15067;SDS011;7633;60.024;18.770;2022-08-19T13:40:53;6.50;;;5.70;;
15067;SDS011;7633;60.024;18.770;2022-08-19T13:43:20;6.88;;;6.07;;
15067;SDS011;7633;60.024;18.770;2022-08-19T13:45:51;9.23;;;5.85;;
15067;SDS011;7633;60.024;18.770;2022-08-19T13:48:18;7.20;;;5.60;;
15067;SDS011;7633;60.024;18.770;2022-08-19T13:50:45;6.00;;;5.40;;
15067;SDS011;7633;60.024;18.770;2022-08-19T13:53:12;8.20;;;5.50;;
15067;SDS011;7633;60.024;18.770;2022-08-19T13:55:41;6.25;;;5.45;;
15067;SDS011;7633;60.024;18.770;2022-08-19T13:58:10;6.03;;;5.40;;
15067;SDS011;7633;60.024;18.770;2022-08-19T14:00:38;8.70;;;6.20;;
15067;SDS011;7633;60.024;18.770;2022-08-19T14:03:03;6.57;;;5.78;;
15067;SDS011;7633;60.024;18.770;2022-08-19T14:05:30;6.55;;;5.53;;
15067;SDS011;7633;60.024;18.770;2022-08-19T14:07:56;7.03;;;6.10;;
15067;SDS011;7633;60.024;18.770;2022-08-19T14:10:21;8.35;;;5.75;;
15067;SDS011;7633;60.024;18.770;2022-08-19T14:12:48;8.05;;;6.45;;
15067;SDS011;7633;60.024;18.770;2022-08-19T14:15:14;6.78;;;6.00;;
15067;SDS011;7633;60.024;18.770;2022-08-19T14:17:40;8.63;;;6.20;;
15067;SDS011;7633;60.024;18.770;2022-08-19T14:20:06;7.13;;;6.20;;
15067;SDS011;7633;60.024;18.770;2022-08-19T14:22:39;6.82;;;6.15;;
15067;SDS011;7633;60.024;18.770;2022-08-19T14:25:07;7.28;;;6.43;;
15067;SDS011;7633;60.024;18.770;2022-08-19T14:27:33;7.75;;;6.95;;
15067;SDS011;7633;60.024;18.770;2022-08-19T14:29:59;9.55;;;6.82;;
15067;SDS011;7633;60.024;18.770;2022-08-19T14:32:24;7.65;;;7.00;;
15067;SDS011;7633;60.024;18.770;2022-08-19T14:34:52;8.43;;;6.85;;
15067;SDS011;7633;60.024;18.770;2022-08-19T14:37:18;7.78;;;6.97;;
15067;SDS011;7633;60.024;18.770;2022-08-19T14:39:43;7.43;;;6.72;;
15067;SDS011;7633;60.024;18.770;2022-08-19T14:42:11;9.68;;;7.05;;
15067;SDS011;7633;60.024;18.770;2022-08-19T14:44:39;7.70;;;6.90;;
15067;SDS011;7633;60.024;18.770;2022-08-19T14:47:04;7.65;;;6.82;;
15067;SDS011;7633;60.024;18.770;2022-08-19T14:49:32;7.82;;;6.75;;